Leto — C6YF8 — position and weather

sailwx.info

Track history (hours):
 
Tides and Currents Weather Stations Pressure Air Temp Water Temp Dewpoint Dewpoint Depression Visibility Wind Speed Wind Dir Waves Ship Positions

Leto

Last reported at 2014-Jul-05 15:23 UTC. Time now 2014-Dec-21 23:14 UTC.
Position N 53°55' E 014°17'.
Warning: this ship's position is months out of date.

Length 225 m; draft 12.8 m.

Type: Cargo ship. MMSI: 311031300.

Date/timePositionNaut miles runAvg speedWind from/ knotsBaromVisibWave heightAir tempDewpointWater temp
2014-Jul-05 15:23N 53°55' E 014°17'0 0.0
2014-Jul-05 14:32N 53°55' E 014°17'0 0.0
2014-Jul-05 13:32N 53°55' E 014°17'0 0.0
2014-Jul-05 12:32N 53°55' E 014°17'0 0.0
2014-Jul-05 11:32N 53°55' E 014°17'0 0.0
2014-Jul-05 10:32N 53°55' E 014°17'0 0.0
2014-Jul-05 09:32N 53°55' E 014°17'0 0.0
2014-Jul-05 08:32N 53°55' E 014°17'0 0.0
2014-Jul-05 07:32N 53°55' E 014°17'0 0.0
2014-Jul-05 06:32N 53°55' E 014°17'0 0.0
2014-Jul-05 05:32N 53°55' E 014°17'0 0.0
2014-Jul-05 04:29N 53°55' E 014°17'0 0.0
2014-Jul-05 03:32N 53°55' E 014°17'0 0.0
2014-Jul-05 02:33N 53°55' E 014°17'1 1.4
2014-Jul-05 01:33N 53°56' E 014°16'4 4.2
2014-Jul-05 00:33N 54°00' E 014°15'7 7.0
2014-Jul-04 23:33N 54°07' E 014°13'8 8.3
2014-Jul-04 22:33N 54°15' E 014°09'9 9.3
2014-Jul-04 21:34N 54°21' E 013°57'1111.3
2014-Jul-04 20:33N 54°31' E 013°48'1111.3
2014-Jul-04 19:33N 54°41' E 013°38'1010.4
2014-Jul-04 18:33N 54°45' E 013°22'1111.3
2014-Jul-04 17:33N 54°46' E 013°02'1111.0
2014-Jul-04 16:33N 54°45' E 012°43'1111.2
2014-Jul-04 15:33N 54°39' E 012°26'1010.5
2014-Jul-04 14:33N 54°31' E 012°15'9 9.4
2014-Jul-04 13:33N 54°25' E 012°03'1211.5
2014-Jul-04 12:33N 54°26' E 011°43'1111.3
2014-Jul-04 11:33N 54°31' E 011°26'1111.1
2014-Jul-04 10:33N 54°35' E 011°08'1111.1
2014-Jul-04 09:33N 54°39' E 010°50'2510.4
2014-Jul-04 07:10N 55°03' E 010°60'711.0
2014-Jul-04 06:33N 55°10' E 011°01'10 9.7
2014-Jul-04 05:33N 55°20' E 011°02'1111.3
2014-Jul-04 04:33N 55°30' E 010°53'1111.1
2014-Jul-04 03:33N 55°40' E 010°46'5210.2
2014-Jul-03 22:24N 56°26' E 011°32'1010.4
2014-Jul-03 21:27N 56°35' E 011°41'910.6
2014-Jul-03 20:33N 56°43' E 011°49'1110.6
2014-Jul-03 19:33N 56°54' E 011°46'1111.0
2014-Jul-03 18:33N 57°04' E 011°39'1110.7
2014-Jul-03 17:33N 57°14' E 011°32'1110.8
2014-Jul-03 16:33N 57°24' E 011°25'1110.6
2014-Jul-03 15:33N 57°32' E 011°13'1211.9
2014-Jul-03 14:33N 57°41' E 010°57'1212.0
2014-Jul-03 13:33N 57°47' E 010°38'1312.9
2014-Jul-03 12:33N 57°47' E 010°14'3812.6
2014-Jul-03 09:33N 57°43' E 009°03'1312.5
2014-Jul-03 08:32N 57°42' E 008°40'35011.9
2014-Jul-02 03:04N 58°32' W 002°16'611.8
2014-Jul-02 02:33N 58°32' W 002°28'1111.4
2014-Jul-02 01:33N 58°34' W 002°49'1414.3
2014-Jul-02 00:33N 58°44' W 003°10'1413.6
2014-Jul-01 23:33N 58°44' W 003°36'1312.8
2014-Jul-01 22:33N 58°44' W 004°01'1312.5
2014-Jul-01 21:33N 58°45' W 004°25'1312.5
2014-Jul-01 20:33N 58°44' W 004°49'1212.2
2014-Jul-01 19:33N 58°44' W 005°12'1212.1
2014-Jul-01 18:33N 58°42' W 005°35'1212.4
2014-Jul-01 17:33N 58°41' W 005°59'  
Track history (hours):
 
Tides and Currents Weather Stations Pressure Air Temp Water Temp Dewpoint Dewpoint Depression Visibility Wind Speed Wind Dir Waves Ship Positions

Leto

Last reported at 2014-Jul-05 15:23 UTC. Time now 2014-Dec-21 23:14 UTC.
Position N 53°55' E 014°17'.
Warning: this ship's position is months out of date.

Length 225 m; draft 12.8 m.

Type: Cargo ship. MMSI: 311031300.

Date/timePositionNaut miles runAvg speedWind from/ knotsBaromVisibWave heightAir tempDewpointWater temp
2014-Jul-05 15:23N 53°55' E 014°17'0 0.0
2014-Jul-05 14:32N 53°55' E 014°17'0 0.0
2014-Jul-05 13:32N 53°55' E 014°17'0 0.0
2014-Jul-05 12:32N 53°55' E 014°17'0 0.0
2014-Jul-05 11:32N 53°55' E 014°17'0 0.0
2014-Jul-05 10:32N 53°55' E 014°17'0 0.0
2014-Jul-05 09:32N 53°55' E 014°17'0 0.0
2014-Jul-05 08:32N 53°55' E 014°17'0 0.0
2014-Jul-05 07:32N 53°55' E 014°17'0 0.0
2014-Jul-05 06:32N 53°55' E 014°17'0 0.0
2014-Jul-05 05:32N 53°55' E 014°17'0 0.0
2014-Jul-05 04:29N 53°55' E 014°17'0 0.0
2014-Jul-05 03:32N 53°55' E 014°17'0 0.0
2014-Jul-05 02:33N 53°55' E 014°17'1 1.4
2014-Jul-05 01:33N 53°56' E 014°16'4 4.2
2014-Jul-05 00:33N 54°00' E 014°15'7 7.0
2014-Jul-04 23:33N 54°07' E 014°13'8 8.3
2014-Jul-04 22:33N 54°15' E 014°09'9 9.3
2014-Jul-04 21:34N 54°21' E 013°57'1111.3
2014-Jul-04 20:33N 54°31' E 013°48'1111.3
2014-Jul-04 19:33N 54°41' E 013°38'1010.4
2014-Jul-04 18:33N 54°45' E 013°22'1111.3
2014-Jul-04 17:33N 54°46' E 013°02'1111.0
2014-Jul-04 16:33N 54°45' E 012°43'1111.2
2014-Jul-04 15:33N 54°39' E 012°26'1010.5
2014-Jul-04 14:33N 54°31' E 012°15'9 9.4
2014-Jul-04 13:33N 54°25' E 012°03'1211.5
2014-Jul-04 12:33N 54°26' E 011°43'1111.3
2014-Jul-04 11:33N 54°31' E 011°26'1111.1
2014-Jul-04 10:33N 54°35' E 011°08'1111.1
2014-Jul-04 09:33N 54°39' E 010°50'2510.4
2014-Jul-04 07:10N 55°03' E 010°60'711.0
2014-Jul-04 06:33N 55°10' E 011°01'10 9.7
2014-Jul-04 05:33N 55°20' E 011°02'1111.3
2014-Jul-04 04:33N 55°30' E 010°53'1111.1
2014-Jul-04 03:33N 55°40' E 010°46'5210.2
2014-Jul-03 22:24N 56°26' E 011°32'1010.4
2014-Jul-03 21:27N 56°35' E 011°41'910.6
2014-Jul-03 20:33N 56°43' E 011°49'1110.6
2014-Jul-03 19:33N 56°54' E 011°46'1111.0
2014-Jul-03 18:33N 57°04' E 011°39'1110.7
2014-Jul-03 17:33N 57°14' E 011°32'1110.8
2014-Jul-03 16:33N 57°24' E 011°25'1110.6
2014-Jul-03 15:33N 57°32' E 011°13'1211.9
2014-Jul-03 14:33N 57°41' E 010°57'1212.0
2014-Jul-03 13:33N 57°47' E 010°38'1312.9
2014-Jul-03 12:33N 57°47' E 010°14'3812.6
2014-Jul-03 09:33N 57°43' E 009°03'1312.5
2014-Jul-03 08:32N 57°42' E 008°40'35011.9
2014-Jul-02 03:04N 58°32' W 002°16'611.8
2014-Jul-02 02:33N 58°32' W 002°28'1111.4
2014-Jul-02 01:33N 58°34' W 002°49'1414.3
2014-Jul-02 00:33N 58°44' W 003°10'1413.6
2014-Jul-01 23:33N 58°44' W 003°36'1312.8
2014-Jul-01 22:33N 58°44' W 004°01'1312.5
2014-Jul-01 21:33N 58°45' W 004°25'1312.5
2014-Jul-01 20:33N 58°44' W 004°49'1212.2
2014-Jul-01 19:33N 58°44' W 005°12'1212.1
2014-Jul-01 18:33N 58°42' W 005°35'1212.4
2014-Jul-01 17:33N 58°41' W 005°59'  

Dump ship's entire track history